Terminal Aerodrome Forecast
Issued by NWS Cleveland, OH

Home | Current Version | Previous Version | Text Only | Print | Product List | Glossary On
Versions: 1 2 3 4 5 6 7 8 9 10 11 12 13 14 15 16 17 18 19 20 21
000
FTUS41 KCLE 231700
TAFCAK
TAF
KCAK 231722Z 2318/2418 34012KT P6SM OVC022
     FM232000 33011KT P6SM SCT025
      TEMPO 2320/2322 BKN025
     FM240000 VRB03KT P6SM SKC
     FM241500 02007KT P6SM SCT250=

USA.gov is the U.S. government's official web portal to all federal, state and local government web resources and services.